Terminal Aerodrome Forecast
Issued by NWS Wakefield, VA

Home | Current Version | Previous Version | Text Only | Print | Product List | Glossary On
Versions: 1 2 3 4 5 6 7 8 9 10 11 12
000
FTUS41 KAKQ 270520
TAFECG
TAF
KECG 270520Z 2706/2806 17005KT P6SM SCT250
     FM271200 18005KT P6SM BKN100
     FM271700 20009KT P6SM SCT050 BKN100
     FM272100 20009KT P6SM SCT080=

USA.gov is the U.S. government's official web portal to all federal, state and local government web resources and services.